sensor_id;sensor_type;location;lat;lon;timestamp;P1;durP1;ratioP1;P2;durP2;ratioP2
23573;SDS011;11965;53.640;10.050;2023-07-30T00:00:36;7.94;;;7.94;;
23573;SDS011;11965;53.640;10.050;2023-07-30T00:03:03;7.94;;;7.94;;
23573;SDS011;11965;53.640;10.050;2023-07-30T00:05:30;7.96;;;7.96;;
23573;SDS011;11965;53.640;10.050;2023-07-30T00:07:59;7.99;;;7.99;;
23573;SDS011;11965;53.640;10.050;2023-07-30T00:10:25;8.14;;;8.14;;
23573;SDS011;11965;53.640;10.050;2023-07-30T00:12:52;7.78;;;7.78;;
23573;SDS011;11965;53.640;10.050;2023-07-30T00:15:19;7.95;;;7.95;;
23573;SDS011;11965;53.640;10.050;2023-07-30T00:17:46;7.78;;;7.78;;
23573;SDS011;11965;53.640;10.050;2023-07-30T00:20:13;8.54;;;8.54;;
23573;SDS011;11965;53.640;10.050;2023-07-30T00:22:40;8.58;;;8.58;;
23573;SDS011;11965;53.640;10.050;2023-07-30T00:25:08;8.29;;;8.29;;
23573;SDS011;11965;53.640;10.050;2023-07-30T00:27:46;8.49;;;8.49;;
23573;SDS011;11965;53.640;10.050;2023-07-30T00:30:12;7.93;;;7.93;;
23573;SDS011;11965;53.640;10.050;2023-07-30T00:32:40;7.96;;;7.96;;
23573;SDS011;11965;53.640;10.050;2023-07-30T00:35:09;7.75;;;7.75;;
23573;SDS011;11965;53.640;10.050;2023-07-30T00:37:35;7.19;;;7.19;;
23573;SDS011;11965;53.640;10.050;2023-07-30T00:40:04;7.80;;;7.80;;
23573;SDS011;11965;53.640;10.050;2023-07-30T00:42:34;7.25;;;7.25;;
23573;SDS011;11965;53.640;10.050;2023-07-30T00:45:01;7.26;;;7.26;;
23573;SDS011;11965;53.640;10.050;2023-07-30T00:47:29;7.18;;;7.18;;
23573;SDS011;11965;53.640;10.050;2023-07-30T00:49:57;6.83;;;6.83;;
23573;SDS011;11965;53.640;10.050;2023-07-30T00:52:24;6.60;;;6.60;;
23573;SDS011;11965;53.640;10.050;2023-07-30T00:54:53;6.77;;;6.77;;
23573;SDS011;11965;53.640;10.050;2023-07-30T00:57:23;6.33;;;6.33;;
23573;SDS011;11965;53.640;10.050;2023-07-30T00:59:52;5.93;;;5.93;;
23573;SDS011;11965;53.640;10.050;2023-07-30T01:02:21;5.96;;;5.96;;
23573;SDS011;11965;53.640;10.050;2023-07-30T01:04:48;5.42;;;5.42;;
23573;SDS011;11965;53.640;10.050;2023-07-30T01:07:17;5.67;;;5.67;;
23573;SDS011;11965;53.640;10.050;2023-07-30T01:09:43;5.64;;;5.64;;
23573;SDS011;11965;53.640;10.050;2023-07-30T01:12:10;5.91;;;5.91;;
23573;SDS011;11965;53.640;10.050;2023-07-30T01:14:37;5.49;;;5.49;;
23573;SDS011;11965;53.640;10.050;2023-07-30T01:17:13;5.33;;;5.33;;
23573;SDS011;11965;53.640;10.050;2023-07-30T01:19:40;5.56;;;5.56;;
23573;SDS011;11965;53.640;10.050;2023-07-30T01:22:08;5.39;;;5.39;;
23573;SDS011;11965;53.640;10.050;2023-07-30T01:24:35;5.66;;;5.66;;
23573;SDS011;11965;53.640;10.050;2023-07-30T01:27:02;5.52;;;5.52;;
23573;SDS011;11965;53.640;10.050;2023-07-30T01:29:48;5.01;;;5.01;;
23573;SDS011;11965;53.640;10.050;2023-07-30T01:32:20;5.46;;;5.46;;
23573;SDS011;11965;53.640;10.050;2023-07-30T01:34:52;5.25;;;5.25;;
23573;SDS011;11965;53.640;10.050;2023-07-30T01:37:22;5.43;;;5.43;;
23573;SDS011;11965;53.640;10.050;2023-07-30T01:39:51;5.32;;;5.32;;
23573;SDS011;11965;53.640;10.050;2023-07-30T01:42:20;5.45;;;5.45;;
23573;SDS011;11965;53.640;10.050;2023-07-30T01:44:54;5.29;;;5.29;;
23573;SDS011;11965;53.640;10.050;2023-07-30T01:47:20;5.66;;;5.66;;
23573;SDS011;11965;53.640;10.050;2023-07-30T01:49:47;5.64;;;5.64;;
23573;SDS011;11965;53.640;10.050;2023-07-30T01:52:14;5.72;;;5.72;;
23573;SDS011;11965;53.640;10.050;2023-07-30T01:54:42;5.42;;;5.42;;
23573;SDS011;11965;53.640;10.050;2023-07-30T01:57:10;6.14;;;6.14;;
23573;SDS011;11965;53.640;10.050;2023-07-30T01:59:38;5.51;;;5.51;;
23573;SDS011;11965;53.640;10.050;2023-07-30T02:02:05;5.98;;;5.98;;
23573;SDS011;11965;53.640;10.050;2023-07-30T02:04:33;5.86;;;5.86;;
23573;SDS011;11965;53.640;10.050;2023-07-30T02:07:00;5.86;;;5.86;;
23573;SDS011;11965;53.640;10.050;2023-07-30T02:09:27;5.86;;;5.86;;
23573;SDS011;11965;53.640;10.050;2023-07-30T02:11:56;6.17;;;6.17;;
23573;SDS011;11965;53.640;10.050;2023-07-30T02:14:23;6.08;;;6.08;;
23573;SDS011;11965;53.640;10.050;2023-07-30T02:16:50;6.34;;;6.34;;
23573;SDS011;11965;53.640;10.050;2023-07-30T02:19:17;6.47;;;6.47;;
23573;SDS011;11965;53.640;10.050;2023-07-30T02:21:43;6.22;;;6.22;;
23573;SDS011;11965;53.640;10.050;2023-07-30T02:24:10;6.54;;;6.54;;
23573;SDS011;11965;53.640;10.050;2023-07-30T02:26:37;6.48;;;6.48;;
23573;SDS011;11965;53.640;10.050;2023-07-30T02:29:06;6.57;;;6.57;;
23573;SDS011;11965;53.640;10.050;2023-07-30T02:31:33;6.45;;;6.45;;
23573;SDS011;11965;53.640;10.050;2023-07-30T02:33:59;6.57;;;6.57;;
23573;SDS011;11965;53.640;10.050;2023-07-30T02:36:26;6.40;;;6.40;;
23573;SDS011;11965;53.640;10.050;2023-07-30T02:38:53;6.80;;;6.80;;
23573;SDS011;11965;53.640;10.050;2023-07-30T02:41:20;7.12;;;7.12;;
23573;SDS011;11965;53.640;10.050;2023-07-30T02:43:47;6.45;;;6.45;;
23573;SDS011;11965;53.640;10.050;2023-07-30T02:46:15;6.93;;;6.93;;
23573;SDS011;11965;53.640;10.050;2023-07-30T02:48:42;6.81;;;6.81;;
23573;SDS011;11965;53.640;10.050;2023-07-30T02:51:08;7.27;;;7.27;;
23573;SDS011;11965;53.640;10.050;2023-07-30T02:53:35;7.21;;;7.21;;
23573;SDS011;11965;53.640;10.050;2023-07-30T02:56:02;7.21;;;7.21;;
23573;SDS011;11965;53.640;10.050;2023-07-30T02:58:29;7.28;;;7.28;;
23573;SDS011;11965;53.640;10.050;2023-07-30T03:01:04;7.69;;;7.69;;
23573;SDS011;11965;53.640;10.050;2023-07-30T03:03:33;7.43;;;7.43;;
23573;SDS011;11965;53.640;10.050;2023-07-30T03:05:59;7.38;;;7.38;;
23573;SDS011;11965;53.640;10.050;2023-07-30T03:08:27;7.81;;;7.81;;
23573;SDS011;11965;53.640;10.050;2023-07-30T03:10:57;7.42;;;7.42;;
23573;SDS011;11965;53.640;10.050;2023-07-30T03:13:24;7.80;;;7.80;;
23573;SDS011;11965;53.640;10.050;2023-07-30T03:15:52;8.14;;;8.14;;
23573;SDS011;11965;53.640;10.050;2023-07-30T03:18:19;7.90;;;7.90;;
23573;SDS011;11965;53.640;10.050;2023-07-30T03:20:47;7.48;;;7.48;;
23573;SDS011;11965;53.640;10.050;2023-07-30T03:23:14;8.42;;;8.42;;
23573;SDS011;11965;53.640;10.050;2023-07-30T03:25:41;8.03;;;8.03;;
23573;SDS011;11965;53.640;10.050;2023-07-30T03:28:08;8.20;;;8.20;;
23573;SDS011;11965;53.640;10.050;2023-07-30T03:30:34;8.54;;;8.54;;
23573;SDS011;11965;53.640;10.050;2023-07-30T03:33:01;8.24;;;8.24;;
23573;SDS011;11965;53.640;10.050;2023-07-30T03:35:28;8.57;;;8.57;;
23573;SDS011;11965;53.640;10.050;2023-07-30T03:37:56;8.42;;;8.42;;
23573;SDS011;11965;53.640;10.050;2023-07-30T03:40:24;8.42;;;8.42;;
23573;SDS011;11965;53.640;10.050;2023-07-30T03:42:51;8.99;;;8.99;;
23573;SDS011;11965;53.640;10.050;2023-07-30T03:45:18;8.99;;;8.99;;
23573;SDS011;11965;53.640;10.050;2023-07-30T03:47:45;8.61;;;8.61;;
23573;SDS011;11965;53.640;10.050;2023-07-30T03:50:12;9.25;;;9.25;;
23573;SDS011;11965;53.640;10.050;2023-07-30T03:52:39;8.68;;;8.68;;
23573;SDS011;11965;53.640;10.050;2023-07-30T03:55:07;8.42;;;8.42;;
23573;SDS011;11965;53.640;10.050;2023-07-30T03:57:34;8.18;;;8.18;;
23573;SDS011;11965;53.640;10.050;2023-07-30T04:00:02;8.99;;;8.99;;
23573;SDS011;11965;53.640;10.050;2023-07-30T04:02:39;8.99;;;8.99;;
23573;SDS011;11965;53.640;10.050;2023-07-30T04:05:06;8.91;;;8.91;;
23573;SDS011;11965;53.640;10.050;2023-07-30T04:07:33;8.97;;;8.97;;
23573;SDS011;11965;53.640;10.050;2023-07-30T04:10:00;8.89;;;8.89;;
23573;SDS011;11965;53.640;10.050;2023-07-30T04:12:29;8.89;;;8.89;;
23573;SDS011;11965;53.640;10.050;2023-07-30T04:14:56;8.45;;;8.45;;
23573;SDS011;11965;53.640;10.050;2023-07-30T04:17:23;8.88;;;8.88;;
23573;SDS011;11965;53.640;10.050;2023-07-30T04:19:49;9.03;;;9.03;;
23573;SDS011;11965;53.640;10.050;2023-07-30T04:22:16;8.99;;;8.99;;
23573;SDS011;11965;53.640;10.050;2023-07-30T04:24:43;8.54;;;8.54;;
23573;SDS011;11965;53.640;10.050;2023-07-30T04:27:10;9.03;;;9.03;;
23573;SDS011;11965;53.640;10.050;2023-07-30T04:29:38;9.00;;;9.00;;
23573;SDS011;11965;53.640;10.050;2023-07-30T04:32:05;9.54;;;9.54;;
23573;SDS011;11965;53.640;10.050;2023-07-30T04:34:33;9.08;;;9.08;;
23573;SDS011;11965;53.640;10.050;2023-07-30T04:37:00;9.07;;;9.07;;
23573;SDS011;11965;53.640;10.050;2023-07-30T04:39:27;9.51;;;9.51;;
23573;SDS011;11965;53.640;10.050;2023-07-30T04:41:54;9.20;;;9.20;;
23573;SDS011;11965;53.640;10.050;2023-07-30T04:44:22;9.53;;;9.53;;
23573;SDS011;11965;53.640;10.050;2023-07-30T04:46:50;9.63;;;9.63;;
23573;SDS011;11965;53.640;10.050;2023-07-30T04:49:17;9.11;;;9.11;;
23573;SDS011;11965;53.640;10.050;2023-07-30T04:51:44;9.05;;;9.05;;
23573;SDS011;11965;53.640;10.050;2023-07-30T04:54:11;9.07;;;9.07;;
23573;SDS011;11965;53.640;10.050;2023-07-30T04:56:38;9.16;;;9.16;;
23573;SDS011;11965;53.640;10.050;2023-07-30T04:59:05;8.87;;;8.87;;
23573;SDS011;11965;53.640;10.050;2023-07-30T05:01:32;8.75;;;8.75;;
23573;SDS011;11965;53.640;10.050;2023-07-30T05:04:00;8.85;;;8.85;;
23573;SDS011;11965;53.640;10.050;2023-07-30T05:06:27;9.06;;;9.06;;
23573;SDS011;11965;53.640;10.050;2023-07-30T05:08:54;8.79;;;8.79;;
23573;SDS011;11965;53.640;10.050;2023-07-30T05:11:21;8.70;;;8.70;;
23573;SDS011;11965;53.640;10.050;2023-07-30T05:13:47;8.56;;;8.56;;
23573;SDS011;11965;53.640;10.050;2023-07-30T05:16:14;8.42;;;8.42;;
23573;SDS011;11965;53.640;10.050;2023-07-30T05:18:41;8.37;;;8.37;;
23573;SDS011;11965;53.640;10.050;2023-07-30T05:21:09;8.18;;;8.18;;
23573;SDS011;11965;53.640;10.050;2023-07-30T05:23:36;7.88;;;7.88;;
23573;SDS011;11965;53.640;10.050;2023-07-30T05:26:03;7.79;;;7.79;;
23573;SDS011;11965;53.640;10.050;2023-07-30T05:28:30;8.21;;;8.21;;
23573;SDS011;11965;53.640;10.050;2023-07-30T05:30:58;7.80;;;7.80;;
23573;SDS011;11965;53.640;10.050;2023-07-30T05:33:25;8.01;;;8.01;;
23573;SDS011;11965;53.640;10.050;2023-07-30T05:35:51;7.81;;;7.81;;
23573;SDS011;11965;53.640;10.050;2023-07-30T05:38:20;8.47;;;8.47;;
23573;SDS011;11965;53.640;10.050;2023-07-30T05:40:46;7.88;;;7.88;;
23573;SDS011;11965;53.640;10.050;2023-07-30T05:43:13;7.88;;;7.88;;
23573;SDS011;11965;53.640;10.050;2023-07-30T05:45:40;7.86;;;7.86;;
23573;SDS011;11965;53.640;10.050;2023-07-30T05:48:07;7.83;;;7.83;;
23573;SDS011;11965;53.640;10.050;2023-07-30T05:50:34;7.83;;;7.83;;
23573;SDS011;11965;53.640;10.050;2023-07-30T05:53:01;7.74;;;7.74;;
23573;SDS011;11965;53.640;10.050;2023-07-30T05:55:29;7.67;;;7.67;;
23573;SDS011;11965;53.640;10.050;2023-07-30T05:57:56;7.50;;;7.50;;
23573;SDS011;11965;53.640;10.050;2023-07-30T06:00:23;8.06;;;8.06;;
23573;SDS011;11965;53.640;10.050;2023-07-30T06:02:50;7.58;;;7.58;;
23573;SDS011;11965;53.640;10.050;2023-07-30T06:05:17;7.94;;;7.94;;
23573;SDS011;11965;53.640;10.050;2023-07-30T06:07:44;8.03;;;8.03;;
23573;SDS011;11965;53.640;10.050;2023-07-30T06:10:11;8.00;;;8.00;;
23573;SDS011;11965;53.640;10.050;2023-07-30T06:12:39;7.56;;;7.56;;
23573;SDS011;11965;53.640;10.050;2023-07-30T06:15:06;7.20;;;7.20;;
23573;SDS011;11965;53.640;10.050;2023-07-30T06:17:35;7.62;;;7.62;;
23573;SDS011;11965;53.640;10.050;2023-07-30T06:20:01;7.99;;;7.99;;
23573;SDS011;11965;53.640;10.050;2023-07-30T06:22:28;7.58;;;7.58;;
23573;SDS011;11965;53.640;10.050;2023-07-30T06:24:55;7.90;;;7.90;;
23573;SDS011;11965;53.640;10.050;2023-07-30T06:27:22;7.91;;;7.91;;
23573;SDS011;11965;53.640;10.050;2023-07-30T06:29:50;7.93;;;7.93;;
23573;SDS011;11965;53.640;10.050;2023-07-30T06:32:17;7.92;;;7.92;;
23573;SDS011;11965;53.640;10.050;2023-07-30T06:34:44;7.74;;;7.74;;
23573;SDS011;11965;53.640;10.050;2023-07-30T06:37:11;7.37;;;7.37;;
23573;SDS011;11965;53.640;10.050;2023-07-30T06:39:38;7.89;;;7.89;;
23573;SDS011;11965;53.640;10.050;2023-07-30T06:42:05;7.57;;;7.57;;
23573;SDS011;11965;53.640;10.050;2023-07-30T06:44:33;8.20;;;8.20;;
23573;SDS011;11965;53.640;10.050;2023-07-30T06:47:01;8.06;;;8.06;;
23573;SDS011;11965;53.640;10.050;2023-07-30T06:49:28;8.60;;;8.60;;
23573;SDS011;11965;53.640;10.050;2023-07-30T06:51:55;8.96;;;8.96;;
23573;SDS011;11965;53.640;10.050;2023-07-30T06:54:22;8.41;;;8.41;;
23573;SDS011;11965;53.640;10.050;2023-07-30T06:56:49;8.35;;;8.35;;
23573;SDS011;11965;53.640;10.050;2023-07-30T06:59:15;8.67;;;8.67;;
23573;SDS011;11965;53.640;10.050;2023-07-30T07:01:42;9.47;;;9.47;;
23573;SDS011;11965;53.640;10.050;2023-07-30T07:04:11;11.49;;;11.49;;
23573;SDS011;11965;53.640;10.050;2023-07-30T07:06:37;11.49;;;11.49;;
23573;SDS011;11965;53.640;10.050;2023-07-30T07:09:04;11.70;;;11.70;;
23573;SDS011;11965;53.640;10.050;2023-07-30T07:11:31;11.51;;;11.51;;
23573;SDS011;11965;53.640;10.050;2023-07-30T07:13:58;11.62;;;11.62;;
23573;SDS011;11965;53.640;10.050;2023-07-30T07:16:25;11.12;;;11.12;;
23573;SDS011;11965;53.640;10.050;2023-07-30T07:18:51;11.03;;;11.03;;
23573;SDS011;11965;53.640;10.050;2023-07-30T07:21:20;11.63;;;11.63;;
23573;SDS011;11965;53.640;10.050;2023-07-30T07:23:47;11.17;;;11.17;;
23573;SDS011;11965;53.640;10.050;2023-07-30T07:26:13;11.25;;;11.25;;
23573;SDS011;11965;53.640;10.050;2023-07-30T07:28:40;11.58;;;11.58;;
23573;SDS011;11965;53.640;10.050;2023-07-30T07:31:07;11.39;;;11.39;;
23573;SDS011;11965;53.640;10.050;2023-07-30T07:33:34;11.32;;;11.32;;
23573;SDS011;11965;53.640;10.050;2023-07-30T07:36:03;11.49;;;11.49;;
23573;SDS011;11965;53.640;10.050;2023-07-30T07:38:32;10.74;;;10.74;;
23573;SDS011;11965;53.640;10.050;2023-07-30T07:41:00;10.49;;;10.49;;
23573;SDS011;11965;53.640;10.050;2023-07-30T07:43:27;10.40;;;10.40;;
23573;SDS011;11965;53.640;10.050;2023-07-30T07:45:54;10.39;;;10.39;;
23573;SDS011;11965;53.640;10.050;2023-07-30T07:48:21;10.60;;;10.60;;
23573;SDS011;11965;53.640;10.050;2023-07-30T07:50:48;9.89;;;9.89;;
23573;SDS011;11965;53.640;10.050;2023-07-30T07:53:15;10.57;;;10.57;;
23573;SDS011;11965;53.640;10.050;2023-07-30T07:55:43;10.02;;;10.02;;
23573;SDS011;11965;53.640;10.050;2023-07-30T07:58:10;9.88;;;9.88;;
23573;SDS011;11965;53.640;10.050;2023-07-30T08:00:36;9.25;;;9.25;;
23573;SDS011;11965;53.640;10.050;2023-07-30T08:03:03;9.65;;;9.65;;
23573;SDS011;11965;53.640;10.050;2023-07-30T08:05:30;10.32;;;10.32;;
23573;SDS011;11965;53.640;10.050;2023-07-30T08:07:57;9.29;;;9.29;;
23573;SDS011;11965;53.640;10.050;2023-07-30T08:10:24;9.49;;;9.49;;
23573;SDS011;11965;53.640;10.050;2023-07-30T08:12:52;8.70;;;8.70;;
23573;SDS011;11965;53.640;10.050;2023-07-30T08:15:19;10.88;;;10.88;;
23573;SDS011;11965;53.640;10.050;2023-07-30T08:17:46;9.21;;;9.21;;
23573;SDS011;11965;53.640;10.050;2023-07-30T08:20:13;9.29;;;9.29;;
23573;SDS011;11965;53.640;10.050;2023-07-30T08:22:40;9.61;;;9.61;;
23573;SDS011;11965;53.640;10.050;2023-07-30T08:25:07;9.36;;;9.36;;
23573;SDS011;11965;53.640;10.050;2023-07-30T08:27:34;8.70;;;8.70;;
23573;SDS011;11965;53.640;10.050;2023-07-30T08:30:02;8.51;;;8.51;;
23573;SDS011;11965;53.640;10.050;2023-07-30T08:32:29;7.79;;;7.79;;
23573;SDS011;11965;53.640;10.050;2023-07-30T08:34:56;7.38;;;7.38;;
23573;SDS011;11965;53.640;10.050;2023-07-30T08:37:23;8.10;;;8.10;;
23573;SDS011;11965;53.640;10.050;2023-07-30T08:39:50;8.23;;;8.23;;
23573;SDS011;11965;53.640;10.050;2023-07-30T08:42:16;8.11;;;8.11;;
23573;SDS011;11965;53.640;10.050;2023-07-30T08:44:43;8.01;;;8.01;;
23573;SDS011;11965;53.640;10.050;2023-07-30T08:47:12;7.92;;;7.92;;
23573;SDS011;11965;53.640;10.050;2023-07-30T08:49:39;8.04;;;8.04;;
23573;SDS011;11965;53.640;10.050;2023-07-30T08:52:09;8.09;;;8.09;;
23573;SDS011;11965;53.640;10.050;2023-07-30T08:54:37;8.00;;;8.00;;
23573;SDS011;11965;53.640;10.050;2023-07-30T08:57:05;6.75;;;6.75;;
23573;SDS011;11965;53.640;10.050;2023-07-30T08:59:35;6.24;;;6.24;;
23573;SDS011;11965;53.640;10.050;2023-07-30T09:02:08;6.53;;;6.53;;
23573;SDS011;11965;53.640;10.050;2023-07-30T09:04:44;5.84;;;5.84;;
23573;SDS011;11965;53.640;10.050;2023-07-30T09:07:17;5.47;;;5.47;;
23573;SDS011;11965;53.640;10.050;2023-07-30T09:09:44;5.41;;;5.41;;
23573;SDS011;11965;53.640;10.050;2023-07-30T09:12:13;4.60;;;4.60;;
23573;SDS011;11965;53.640;10.050;2023-07-30T09:14:41;4.97;;;4.87;;
23573;SDS011;11965;53.640;10.050;2023-07-30T09:17:10;5.13;;;4.90;;
23573;SDS011;11965;53.640;10.050;2023-07-30T09:19:39;4.90;;;4.74;;
23573;SDS011;11965;53.640;10.050;2023-07-30T09:22:06;4.58;;;4.58;;
23573;SDS011;11965;53.640;10.050;2023-07-30T09:24:33;4.68;;;4.65;;
23573;SDS011;11965;53.640;10.050;2023-07-30T09:27:01;5.32;;;5.10;;
23573;SDS011;11965;53.640;10.050;2023-07-30T09:29:29;4.84;;;4.66;;
23573;SDS011;11965;53.640;10.050;2023-07-30T09:31:56;4.86;;;4.66;;
23573;SDS011;11965;53.640;10.050;2023-07-30T09:34:23;4.74;;;4.46;;
23573;SDS011;11965;53.640;10.050;2023-07-30T09:36:52;5.22;;;4.83;;
23573;SDS011;11965;53.640;10.050;2023-07-30T09:39:22;5.13;;;4.76;;
23573;SDS011;11965;53.640;10.050;2023-07-30T09:41:51;4.69;;;4.40;;
23573;SDS011;11965;53.640;10.050;2023-07-30T09:44:25;5.34;;;4.87;;
23573;SDS011;11965;53.640;10.050;2023-07-30T09:46:52;4.93;;;4.56;;
23573;SDS011;11965;53.640;10.050;2023-07-30T09:49:19;5.14;;;4.71;;
23573;SDS011;11965;53.640;10.050;2023-07-30T09:51:45;4.90;;;4.49;;
23573;SDS011;11965;53.640;10.050;2023-07-30T09:54:15;4.83;;;4.51;;
23573;SDS011;11965;53.640;10.050;2023-07-30T09:56:42;5.04;;;4.71;;
23573;SDS011;11965;53.640;10.050;2023-07-30T09:59:09;4.89;;;4.50;;
23573;SDS011;11965;53.640;10.050;2023-07-30T10:01:38;5.32;;;4.86;;
23573;SDS011;11965;53.640;10.050;2023-07-30T10:04:10;4.98;;;4.67;;
23573;SDS011;11965;53.640;10.050;2023-07-30T10:06:41;5.32;;;5.06;;
23573;SDS011;11965;53.640;10.050;2023-07-30T10:09:16;5.16;;;5.06;;
23573;SDS011;11965;53.640;10.050;2023-07-30T10:11:46;4.79;;;4.79;;
23573;SDS011;11965;53.640;10.050;2023-07-30T10:14:17;5.01;;;5.01;;
23573;SDS011;11965;53.640;10.050;2023-07-30T10:16:49;4.50;;;4.49;;
23573;SDS011;11965;53.640;10.050;2023-07-30T10:19:18;4.99;;;4.78;;
23573;SDS011;11965;53.640;10.050;2023-07-30T10:21:48;5.35;;;5.01;;
23573;SDS011;11965;53.640;10.050;2023-07-30T10:24:17;4.45;;;4.44;;
23573;SDS011;11965;53.640;10.050;2023-07-30T10:26:43;4.93;;;4.93;;
23573;SDS011;11965;53.640;10.050;2023-07-30T10:29:11;4.65;;;4.65;;
23573;SDS011;11965;53.640;10.050;2023-07-30T10:31:43;4.91;;;4.91;;
23573;SDS011;11965;53.640;10.050;2023-07-30T10:34:13;5.70;;;5.70;;
23573;SDS011;11965;53.640;10.050;2023-07-30T10:36:41;5.67;;;5.67;;
23573;SDS011;11965;53.640;10.050;2023-07-30T10:39:11;5.41;;;5.41;;
23573;SDS011;11965;53.640;10.050;2023-07-30T10:41:39;5.43;;;5.43;;
23573;SDS011;11965;53.640;10.050;2023-07-30T10:44:07;5.33;;;5.33;;
23573;SDS011;11965;53.640;10.050;2023-07-30T10:46:43;5.29;;;5.29;;
23573;SDS011;11965;53.640;10.050;2023-07-30T10:49:10;5.23;;;5.23;;
23573;SDS011;11965;53.640;10.050;2023-07-30T10:51:37;5.59;;;5.59;;
23573;SDS011;11965;53.640;10.050;2023-07-30T10:54:05;6.00;;;6.00;;
23573;SDS011;11965;53.640;10.050;2023-07-30T10:56:34;5.43;;;5.43;;
23573;SDS011;11965;53.640;10.050;2023-07-30T10:59:04;6.07;;;6.07;;
23573;SDS011;11965;53.640;10.050;2023-07-30T11:01:35;5.39;;;5.39;;
23573;SDS011;11965;53.640;10.050;2023-07-30T11:04:05;4.61;;;4.61;;
23573;SDS011;11965;53.640;10.050;2023-07-30T11:06:33;4.00;;;4.00;;
23573;SDS011;11965;53.640;10.050;2023-07-30T11:09:00;4.08;;;4.08;;
23573;SDS011;11965;53.640;10.050;2023-07-30T11:11:27;4.04;;;4.04;;
23573;SDS011;11965;53.640;10.050;2023-07-30T11:13:54;3.80;;;3.80;;
23573;SDS011;11965;53.640;10.050;2023-07-30T11:16:22;3.25;;;3.25;;
23573;SDS011;11965;53.640;10.050;2023-07-30T11:18:49;3.38;;;3.38;;
23573;SDS011;11965;53.640;10.050;2023-07-30T11:21:17;3.50;;;3.50;;
23573;SDS011;11965;53.640;10.050;2023-07-30T11:23:45;3.85;;;3.81;;
23573;SDS011;11965;53.640;10.050;2023-07-30T11:26:13;3.98;;;3.71;;
23573;SDS011;11965;53.640;10.050;2023-07-30T11:28:41;3.70;;;3.49;;
23573;SDS011;11965;53.640;10.050;2023-07-30T11:31:09;3.64;;;3.59;;
23573;SDS011;11965;53.640;10.050;2023-07-30T11:33:39;3.18;;;3.02;;
23573;SDS011;11965;53.640;10.050;2023-07-30T11:36:08;3.73;;;3.66;;
23573;SDS011;11965;53.640;10.050;2023-07-30T11:38:37;3.52;;;3.37;;
23573;SDS011;11965;53.640;10.050;2023-07-30T11:41:06;3.73;;;3.48;;
23573;SDS011;11965;53.640;10.050;2023-07-30T11:43:36;3.80;;;3.52;;
23573;SDS011;11965;53.640;10.050;2023-07-30T11:46:09;3.23;;;2.98;;
23573;SDS011;11965;53.640;10.050;2023-07-30T11:48:39;3.58;;;3.28;;
23573;SDS011;11965;53.640;10.050;2023-07-30T11:51:17;3.72;;;3.39;;
23573;SDS011;11965;53.640;10.050;2023-07-30T11:53:47;3.35;;;3.12;;
23573;SDS011;11965;53.640;10.050;2023-07-30T11:56:16;3.11;;;2.93;;
23573;SDS011;11965;53.640;10.050;2023-07-30T11:58:48;3.46;;;3.28;;
23573;SDS011;11965;53.640;10.050;2023-07-30T12:01:16;3.40;;;3.21;;
23573;SDS011;11965;53.640;10.050;2023-07-30T12:03:45;3.47;;;3.22;;
23573;SDS011;11965;53.640;10.050;2023-07-30T12:06:12;3.12;;;2.93;;
23573;SDS011;11965;53.640;10.050;2023-07-30T12:08:39;3.14;;;2.95;;
23573;SDS011;11965;53.640;10.050;2023-07-30T12:11:06;3.17;;;2.96;;
23573;SDS011;11965;53.640;10.050;2023-07-30T12:13:41;2.85;;;2.62;;
23573;SDS011;11965;53.640;10.050;2023-07-30T12:16:11;2.84;;;2.63;;
23573;SDS011;11965;53.640;10.050;2023-07-30T12:18:39;2.89;;;2.69;;
23573;SDS011;11965;53.640;10.050;2023-07-30T12:21:07;2.90;;;2.74;;
23573;SDS011;11965;53.640;10.050;2023-07-30T12:23:36;3.06;;;2.89;;
23573;SDS011;11965;53.640;10.050;2023-07-30T12:26:03;3.11;;;2.95;;
23573;SDS011;11965;53.640;10.050;2023-07-30T12:28:31;2.82;;;2.70;;
23573;SDS011;11965;53.640;10.050;2023-07-30T12:30:59;3.23;;;3.11;;
23573;SDS011;11965;53.640;10.050;2023-07-30T12:33:26;2.69;;;2.63;;
23573;SDS011;11965;53.640;10.050;2023-07-30T12:35:53;3.29;;;3.11;;
23573;SDS011;11965;53.640;10.050;2023-07-30T12:38:21;3.24;;;2.98;;
23573;SDS011;11965;53.640;10.050;2023-07-30T12:40:48;3.31;;;3.04;;
23573;SDS011;11965;53.640;10.050;2023-07-30T12:43:16;3.13;;;2.85;;
23573;SDS011;11965;53.640;10.050;2023-07-30T12:45:45;3.05;;;2.78;;
23573;SDS011;11965;53.640;10.050;2023-07-30T12:48:12;2.80;;;2.59;;
23573;SDS011;11965;53.640;10.050;2023-07-30T12:50:39;3.13;;;2.92;;
23573;SDS011;11965;53.640;10.050;2023-07-30T12:53:06;3.33;;;3.13;;
23573;SDS011;11965;53.640;10.050;2023-07-30T12:55:34;2.94;;;2.88;;
23573;SDS011;11965;53.640;10.050;2023-07-30T12:58:02;2.92;;;2.92;;
23573;SDS011;11965;53.640;10.050;2023-07-30T13:00:29;3.02;;;3.01;;
23573;SDS011;11965;53.640;10.050;2023-07-30T13:02:56;2.83;;;2.80;;
23573;SDS011;11965;53.640;10.050;2023-07-30T13:05:23;2.88;;;2.88;;
23573;SDS011;11965;53.640;10.050;2023-07-30T13:07:49;3.15;;;3.12;;
23573;SDS011;11965;53.640;10.050;2023-07-30T13:10:16;3.55;;;3.55;;
23573;SDS011;11965;53.640;10.050;2023-07-30T13:12:45;3.68;;;3.59;;
23573;SDS011;11965;53.640;10.050;2023-07-30T13:15:11;9.80;;;9.31;;
23573;SDS011;11965;53.640;10.050;2023-07-30T13:17:38;5.85;;;5.42;;
23573;SDS011;11965;53.640;10.050;2023-07-30T13:20:05;4.73;;;4.36;;
23573;SDS011;11965;53.640;10.050;2023-07-30T13:22:33;3.80;;;3.56;;
23573;SDS011;11965;53.640;10.050;2023-07-30T13:25:00;2.85;;;2.73;;
23573;SDS011;11965;53.640;10.050;2023-07-30T13:27:27;2.17;;;2.12;;
23573;SDS011;11965;53.640;10.050;2023-07-30T13:29:55;2.49;;;2.42;;
23573;SDS011;11965;53.640;10.050;2023-07-30T13:32:22;2.71;;;2.64;;
23573;SDS011;11965;53.640;10.050;2023-07-30T13:34:48;2.81;;;2.79;;
23573;SDS011;11965;53.640;10.050;2023-07-30T13:37:15;2.81;;;2.81;;
23573;SDS011;11965;53.640;10.050;2023-07-30T13:39:42;2.94;;;2.94;;
23573;SDS011;11965;53.640;10.050;2023-07-30T13:42:09;2.48;;;2.48;;
23573;SDS011;11965;53.640;10.050;2023-07-30T13:44:35;2.66;;;2.64;;
23573;SDS011;11965;53.640;10.050;2023-07-30T13:47:04;2.85;;;2.84;;
23573;SDS011;11965;53.640;10.050;2023-07-30T13:49:31;2.44;;;2.40;;
23573;SDS011;11965;53.640;10.050;2023-07-30T13:51:58;2.62;;;2.56;;
23573;SDS011;11965;53.640;10.050;2023-07-30T13:54:25;2.67;;;2.65;;
23573;SDS011;11965;53.640;10.050;2023-07-30T13:56:52;2.57;;;2.57;;
23573;SDS011;11965;53.640;10.050;2023-07-30T13:59:18;2.50;;;2.45;;
23573;SDS011;11965;53.640;10.050;2023-07-30T14:01:45;2.27;;;2.25;;
23573;SDS011;11965;53.640;10.050;2023-07-30T14:04:13;2.22;;;2.22;;
23573;SDS011;11965;53.640;10.050;2023-07-30T14:06:40;2.32;;;2.32;;
23573;SDS011;11965;53.640;10.050;2023-07-30T14:09:07;2.23;;;2.23;;
23573;SDS011;11965;53.640;10.050;2023-07-30T14:11:34;2.10;;;2.10;;
23573;SDS011;11965;53.640;10.050;2023-07-30T14:14:02;1.99;;;1.99;;
23573;SDS011;11965;53.640;10.050;2023-07-30T14:16:30;2.25;;;2.25;;
23573;SDS011;11965;53.640;10.050;2023-07-30T14:18:58;2.26;;;2.25;;
23573;SDS011;11965;53.640;10.050;2023-07-30T14:21:26;2.17;;;2.17;;
23573;SDS011;11965;53.640;10.050;2023-07-30T14:23:53;2.22;;;2.22;;
23573;SDS011;11965;53.640;10.050;2023-07-30T14:26:20;2.25;;;2.25;;
23573;SDS011;11965;53.640;10.050;2023-07-30T14:28:47;2.13;;;2.13;;
23573;SDS011;11965;53.640;10.050;2023-07-30T14:31:13;2.07;;;2.07;;
23573;SDS011;11965;53.640;10.050;2023-07-30T14:33:40;2.12;;;2.11;;
23573;SDS011;11965;53.640;10.050;2023-07-30T14:36:07;2.21;;;2.21;;